Loranger, Louisiana
Current Conditions -  °F | °C
As of 11:15 AM on Sunday 23 Nov 2014 (Local Time) from KHDC Reporting Station
Overcast Overcast  
Wind Chill: 68°   Ceiling: 2300
Heat Index: 68°   Visibility: 10mi
Dew Point: 59°   Wind: 12mph
Humidity: 73%   Direction: 230°SW
Pressure: 29.69"   Gusts: 18mph
Location:  30.64°N, 90.4°W
Report Text: KHDC 231715Z AUTO 23010G16KT 10SM SCT015 BKN023 OVC029 20/15 A2969 RMK AO2 LTG DSNT S
Loading
Personal Weather Stations






























Interactive Weather Map New forecast layout! Learn more

10-Day Weather Forecast

Advertisements
Track Severe Weather on mobile